Terminal Aerodrome Forecast
Issued by NWS

Home | Current Version | Previous Version | Text Only | Print | Product List | Glossary Off
Versions: 1 2 3 4 5 6 7 8 9 10 11 12 13 14 15 16 17 18 19 20 21 22 23 24 25 26 27 28 29 30 31 32 33 34 35 36 37 38 39

000
FTUS43 KGRB 221700
TAFRHI
TAF
KRHI 221735Z 2218/2318 26012G23KT P6SM SCT020 BKN035
     FM222100 31013G23KT P6SM SCT025 BKN035
      TEMPO 2221/2224 BKN025
     FM230200 33010KT P6SM SKC=

USA.gov is the U.S. government's official web portal to all federal, state and local government web resources and services.